createdAt,value
2022-09-01T00:00:02.200Z,2.88
2022-09-01T00:02:34.290Z,3.95
2022-09-01T00:05:04.602Z,2.80
2022-09-01T00:07:35.314Z,2.35
2022-09-01T00:10:06.782Z,2.55
2022-09-01T00:12:34.820Z,2.45
2022-09-01T00:15:02.758Z,2.75
2022-09-01T00:17:31.161Z,2.67
2022-09-01T00:19:59.027Z,5.15
2022-09-01T00:22:26.932Z,2.60
2022-09-01T00:24:56.709Z,3.08
2022-09-01T00:27:27.876Z,2.80
2022-09-01T00:29:58.798Z,3.40
2022-09-01T00:32:26.973Z,3.10
2022-09-01T00:34:54.826Z,4.65
2022-09-01T00:37:22.605Z,5.03
2022-09-01T00:39:50.417Z,3.88
2022-09-01T00:42:19.664Z,4.43
2022-09-01T00:44:47.477Z,4.03
2022-09-01T00:47:15.638Z,4.75
2022-09-01T00:49:49.532Z,4.40
2022-09-01T00:52:21.818Z,3.65
2022-09-01T00:54:54.783Z,3.53
2022-09-01T00:57:24.481Z,4.10
2022-09-01T00:59:55.931Z,3.60
2022-09-01T01:02:24.148Z,3.83
2022-09-01T01:04:52.888Z,4.47
2022-09-01T01:07:23.556Z,4.72
2022-09-01T01:09:52.302Z,5.20
2022-09-01T01:12:20.862Z,4.75
2022-09-01T01:14:51.329Z,4.22
2022-09-01T01:17:22.452Z,4.60
2022-09-01T01:20:11.794Z,4.85
2022-09-01T01:23:06.337Z,4.43
2022-09-01T01:25:40.239Z,4.00
2022-09-01T01:28:11.719Z,4.85
2022-09-01T01:30:45.311Z,5.97
2022-09-01T01:33:13.615Z,5.55
2022-09-01T01:35:42.411Z,4.53
2022-09-01T01:38:11.190Z,4.72
2022-09-01T01:40:41.491Z,5.05
2022-09-01T01:43:12.165Z,4.75
2022-09-01T01:45:40.030Z,4.80
2022-09-01T01:48:10.721Z,4.57
2022-09-01T01:50:40.661Z,5.07
2022-09-01T01:53:10.910Z,5.18
2022-09-01T01:55:43.778Z,4.72
2022-09-01T01:58:14.985Z,4.45
2022-09-01T02:00:47.327Z,4.70
2022-09-01T02:03:19.019Z,4.75
2022-09-01T02:05:49.021Z,5.05
2022-09-01T02:08:20.845Z,6.95
2022-09-01T02:10:52.478Z,5.75
2022-09-01T02:13:30.956Z,5.40
2022-09-01T02:16:02.044Z,5.50
2022-09-01T02:18:34.348Z,5.30
2022-09-01T02:21:03.995Z,6.03
2022-09-01T02:23:32.688Z,5.10
2022-09-01T02:26:18.027Z,6.57
2022-09-01T02:28:55.712Z,6.38
2022-09-01T02:31:28.436Z,5.78
2022-09-01T02:33:59.138Z,6.10
2022-09-01T02:36:28.051Z,6.30
2022-09-01T02:38:57.010Z,6.15
2022-09-01T02:41:30.113Z,6.30
2022-09-01T02:44:02.319Z,5.93
2022-09-01T02:46:30.899Z,5.25
2022-09-01T02:49:00.653Z,5.25
2022-09-01T02:51:29.151Z,5.20
2022-09-01T02:53:57.922Z,4.90
2022-09-01T02:56:28.018Z,4.95
2022-09-01T02:58:56.441Z,5.18
2022-09-01T03:01:29.734Z,4.97
2022-09-01T03:04:00.313Z,4.60
2022-09-01T03:06:31.450Z,5.43
2022-09-01T03:09:00.398Z,4.40
2022-09-01T03:11:31.598Z,5.10
2022-09-01T03:14:00.670Z,4.40
2022-09-01T03:16:30.568Z,3.78
2022-09-01T03:18:59.206Z,3.60
2022-09-01T03:21:27.735Z,4.30
2022-09-01T03:23:55.738Z,3.60
2022-09-01T03:26:24.111Z,3.88
2022-09-01T03:28:53.329Z,3.75
2022-09-01T03:31:21.947Z,3.85
2022-09-01T03:33:52.029Z,3.33
2022-09-01T03:36:25.200Z,3.63
2022-09-01T03:38:53.942Z,3.72
2022-09-01T03:41:25.071Z,3.45
2022-09-01T03:43:58.217Z,3.33
2022-09-01T03:46:36.393Z,3.50
2022-09-01T03:49:08.053Z,3.65
2022-09-01T03:51:39.084Z,3.28
2022-09-01T03:54:08.152Z,2.90
2022-09-01T03:56:36.320Z,3.72
2022-09-01T03:59:05.607Z,3.45
2022-09-01T04:01:43.715Z,3.25
2022-09-01T04:04:13.821Z,4.05
2022-09-01T04:06:42.946Z,4.13
2022-09-01T04:09:11.046Z,3.42
2022-09-01T04:11:45.776Z,3.50
2022-09-01T04:14:17.589Z,4.10
2022-09-01T04:17:07.128Z,3.45
2022-09-01T04:19:39.518Z,4.38
2022-09-01T04:22:13.516Z,3.83
2022-09-01T04:24:46.185Z,3.80
2022-09-01T04:27:18.055Z,3.42
2022-09-01T04:29:48.609Z,3.85
2022-09-01T04:32:17.056Z,4.40
2022-09-01T04:34:48.786Z,3.00
2022-09-01T04:37:20.680Z,4.35
2022-09-01T04:39:56.655Z,4.30
2022-09-01T04:42:27.392Z,4.20
2022-09-01T04:45:00.084Z,3.83
2022-09-01T04:47:35.437Z,4.75
2022-09-01T04:50:14.099Z,3.70
2022-09-01T04:52:45.802Z,4.10
2022-09-01T04:55:28.149Z,3.97
2022-09-01T04:57:57.517Z,4.60
2022-09-01T05:00:32.257Z,4.20
2022-09-01T05:03:04.717Z,3.85
2022-09-01T05:06:00.177Z,4.10
2022-09-01T05:08:28.971Z,3.85
2022-09-01T05:11:07.961Z,4.47
2022-09-01T05:13:45.479Z,5.43
2022-09-01T05:16:24.899Z,4.88
2022-09-01T05:18:57.932Z,5.97
2022-09-01T05:21:30.037Z,12.38
2022-09-01T05:24:01.406Z,15.57
2022-09-01T05:26:32.263Z,14.40
2022-09-01T05:29:02.419Z,7.07
2022-09-01T05:31:38.815Z,4.70
2022-09-01T05:34:36.423Z,4.63
2022-09-01T05:37:06.467Z,3.90
2022-09-01T05:39:35.588Z,4.32
2022-09-01T05:42:04.746Z,4.88
2022-09-01T05:44:33.860Z,3.90
2022-09-01T05:47:03.506Z,4.10
2022-09-01T05:49:33.148Z,5.28
2022-09-01T05:52:04.304Z,5.30
2022-09-01T05:54:32.837Z,5.18
2022-09-01T05:57:23.227Z,4.78
2022-09-01T05:59:54.060Z,5.05
2022-09-01T06:02:26.257Z,3.75
2022-09-01T06:04:56.962Z,4.90
2022-09-01T06:07:29.110Z,4.25
2022-09-01T06:10:00.012Z,4.78
2022-09-01T06:12:28.991Z,6.25
2022-09-01T06:14:58.231Z,5.15
2022-09-01T06:17:30.102Z,5.55
2022-09-01T06:20:02.035Z,5.35
2022-09-01T06:22:30.637Z,5.65
2022-09-01T06:25:02.610Z,5.68
2022-09-01T06:27:38.736Z,6.40
2022-09-01T06:30:14.909Z,5.63
2022-09-01T06:32:49.712Z,4.80
2022-09-01T06:35:19.023Z,6.10
2022-09-01T06:37:48.562Z,4.20
2022-09-01T06:40:34.142Z,5.43
2022-09-01T06:43:07.982Z,4.10
2022-09-01T06:45:42.099Z,4.38
2022-09-01T06:48:15.897Z,4.13
2022-09-01T06:53:35.001Z,5.18
2022-09-01T06:56:05.588Z,5.38
2022-09-01T06:58:34.986Z,4.82
2022-09-01T07:01:08.094Z,4.90
2022-09-01T07:03:39.000Z,5.15
2022-09-01T07:09:50.006Z,5.28
2022-09-01T07:13:04.845Z,5.85
2022-09-01T07:18:21.444Z,5.40
2022-09-01T07:21:36.132Z,4.95
2022-09-01T07:24:07.845Z,5.30
2022-09-01T07:26:27.265Z,5.30
2022-09-01T07:29:06.204Z,5.50
2022-09-01T07:34:46.041Z,5.97
2022-09-01T07:38:47.414Z,6.38
2022-09-01T07:43:07.460Z,6.15
2022-09-01T07:49:03.448Z,6.35
2022-09-01T07:51:50.084Z,5.82
2022-09-01T07:54:23.994Z,5.95
2022-09-01T07:56:55.507Z,7.07
2022-09-01T07:59:24.557Z,6.85
2022-09-01T08:02:05.652Z,8.13
2022-09-01T08:04:34.113Z,6.13
2022-09-01T08:07:03.103Z,6.30
2022-09-01T08:09:37.862Z,5.57
2022-09-01T08:12:13.148Z,5.25
2022-09-01T08:14:46.780Z,5.80
2022-09-01T08:17:33.004Z,5.25
2022-09-01T08:20:14.226Z,5.95
2022-09-01T08:22:52.495Z,5.75
2022-09-01T08:25:26.860Z,4.47
2022-09-01T08:28:00.304Z,4.68
2022-09-01T08:30:28.714Z,3.55
2022-09-01T08:32:57.770Z,4.10
2022-09-01T08:35:26.925Z,3.70
2022-09-01T08:37:55.157Z,4.05
2022-09-01T08:40:23.898Z,3.70
2022-09-01T08:43:07.901Z,4.18
2022-09-01T08:45:45.888Z,3.97
2022-09-01T08:51:18.595Z,2.67
2022-09-01T08:54:02.265Z,3.22
2022-09-01T08:56:30.781Z,3.03
2022-09-01T08:59:02.721Z,3.70
2022-09-01T09:01:50.583Z,3.80
2022-09-01T09:04:36.714Z,3.28
2022-09-01T09:07:13.569Z,3.10
2022-09-01T09:09:54.250Z,2.58
2022-09-01T09:12:50.900Z,4.57
2022-09-01T09:15:27.865Z,3.45
2022-09-01T09:18:02.104Z,4.00
2022-09-01T09:20:34.771Z,3.20
2022-09-01T09:23:18.349Z,3.40
2022-09-01T09:25:46.794Z,2.53
2022-09-01T09:28:14.590Z,2.73
2022-09-01T09:30:43.707Z,2.67
2022-09-01T09:33:51.128Z,3.80
2022-09-01T09:36:22.198Z,3.27
2022-09-01T09:39:11.858Z,3.77
2022-09-01T09:41:41.340Z,3.50
2022-09-01T09:44:23.050Z,2.60
2022-09-01T09:46:52.456Z,3.10
2022-09-01T09:49:35.921Z,2.53
2022-09-01T09:52:17.141Z,2.80
2022-09-01T09:55:01.713Z,3.30
2022-09-01T09:57:31.389Z,2.10
2022-09-01T10:00:03.149Z,2.67
2022-09-01T10:02:45.137Z,2.17
2022-09-01T10:05:27.806Z,2.63
2022-09-01T10:07:58.228Z,1.70
2022-09-01T10:10:30.687Z,1.73
2022-09-01T10:13:00.634Z,1.43
2022-09-01T10:15:33.444Z,1.70
2022-09-01T10:18:20.042Z,2.17
2022-09-01T10:20:55.316Z,1.33
2022-09-01T10:23:27.106Z,1.70
2022-09-01T10:26:00.318Z,1.80
2022-09-01T10:28:31.075Z,1.63
2022-09-01T10:31:00.214Z,1.73
2022-09-01T10:33:29.542Z,1.60
2022-09-01T10:35:57.473Z,1.60
2022-09-01T10:38:27.672Z,1.88
2022-09-01T10:41:09.112Z,1.27
2022-09-01T10:43:44.067Z,1.37
2022-09-01T10:46:50.615Z,2.30
2022-09-01T10:49:58.917Z,1.60
2022-09-01T10:53:10.206Z,1.87
2022-09-01T10:55:45.304Z,1.60
2022-09-01T11:02:35.793Z,1.50
2022-09-01T11:05:14.916Z,1.10
2022-09-01T11:08:01.563Z,1.33
2022-09-01T11:10:42.809Z,1.40
2022-09-01T11:13:27.706Z,1.20
2022-09-01T11:15:55.533Z,1.02
2022-09-01T11:18:31.222Z,1.40
2022-09-01T11:21:15.989Z,1.20
2022-09-01T11:23:43.849Z,1.00
2022-09-01T11:26:41.914Z,1.30
2022-09-01T11:29:49.217Z,1.55
2022-09-01T11:32:18.695Z,1.63
2022-09-01T11:34:49.561Z,1.48
2022-09-01T11:37:21.134Z,1.88
2022-09-01T11:39:51.909Z,1.33
2022-09-01T11:42:22.877Z,2.20
2022-09-01T11:44:58.712Z,2.15
2022-09-01T11:47:30.036Z,2.15
2022-09-01T11:50:00.919Z,2.70
2022-09-01T11:52:33.304Z,1.63
2022-09-01T11:55:01.491Z,1.10
2022-09-01T11:57:33.683Z,1.67
2022-09-01T12:00:07.133Z,1.27
2022-09-01T12:02:45.980Z,1.58
2022-09-01T12:05:29.724Z,1.30
2022-09-01T12:07:58.683Z,1.90
2022-09-01T12:10:34.025Z,1.58
2022-09-01T12:13:04.697Z,1.48
2022-09-01T12:15:36.572Z,1.58
2022-09-01T12:18:15.954Z,1.63
2022-09-01T12:20:43.760Z,1.58
2022-09-01T12:23:20.420Z,1.40
2022-09-01T12:25:48.545Z,1.33
2022-09-01T12:28:16.845Z,1.50
2022-09-01T12:30:46.323Z,1.33
2022-09-01T12:33:23.462Z,1.20
2022-09-01T12:35:54.069Z,1.40
2022-09-01T12:38:27.001Z,1.50
2022-09-01T12:40:56.754Z,2.05
2022-09-01T12:43:37.204Z,1.70
2022-09-01T12:46:10.850Z,1.80
2022-09-01T12:48:40.806Z,1.77
2022-09-01T12:51:20.093Z,2.17
2022-09-01T12:53:53.966Z,1.08
2022-09-01T12:56:29.778Z,1.58
2022-09-01T12:59:11.942Z,1.63
2022-09-01T13:01:45.062Z,1.95
2022-09-01T13:04:26.322Z,1.02
2022-09-01T13:06:55.577Z,2.00
2022-09-01T13:09:23.571Z,1.45
2022-09-01T13:12:07.602Z,1.50
2022-09-01T13:14:35.854Z,1.20
2022-09-01T13:17:06.007Z,1.52
2022-09-01T13:19:42.148Z,1.02
2022-09-01T13:22:10.096Z,1.63
2022-09-01T13:24:39.627Z,1.20
2022-09-01T13:27:23.639Z,1.35
2022-09-01T13:29:52.278Z,1.05
2022-09-01T13:32:24.045Z,1.08
2022-09-01T13:34:54.308Z,0.95
2022-09-01T13:37:23.405Z,1.50
2022-09-01T13:39:51.851Z,1.33
2022-09-01T13:42:20.278Z,1.40
2022-09-01T13:44:52.539Z,1.00
2022-09-01T13:47:28.915Z,1.10
2022-09-01T13:50:14.515Z,1.75
2022-09-01T13:52:46.112Z,0.90
2022-09-01T13:55:25.049Z,0.88
2022-09-01T13:57:55.854Z,1.42
2022-09-01T14:00:26.428Z,1.00
2022-09-01T14:02:57.365Z,1.10
2022-09-01T14:05:27.563Z,1.00
2022-09-01T14:07:55.949Z,1.00
2022-09-01T14:10:25.280Z,1.08
2022-09-01T14:12:53.258Z,0.90
2022-09-01T14:15:26.999Z,1.20
2022-09-01T14:17:58.071Z,0.80
2022-09-01T14:20:30.126Z,0.90
2022-09-01T14:22:59.648Z,1.00
2022-09-01T14:25:27.490Z,0.95
2022-09-01T14:27:57.106Z,1.10
2022-09-01T14:30:30.984Z,1.00
2022-09-01T14:33:02.474Z,0.90
2022-09-01T14:35:33.183Z,0.93
2022-09-01T14:38:05.215Z,1.08
2022-09-01T14:40:33.814Z,1.00
2022-09-01T14:43:01.857Z,1.10
2022-09-01T14:45:29.758Z,0.82
2022-09-01T14:48:01.042Z,0.98
2022-09-01T14:50:32.600Z,1.25
2022-09-01T14:53:02.486Z,1.33
2022-09-01T14:55:31.987Z,1.00
2022-09-01T14:58:01.325Z,1.13
2022-09-01T15:00:30.212Z,1.00
2022-09-01T15:02:59.971Z,0.90
2022-09-01T15:05:27.951Z,0.95
2022-09-01T15:07:57.107Z,1.25
2022-09-01T15:10:28.025Z,1.40
2022-09-01T15:12:58.312Z,1.58
2022-09-01T15:15:27.806Z,0.93
2022-09-01T15:17:56.731Z,1.02
2022-09-01T15:20:43.591Z,1.55
2022-09-01T15:23:13.510Z,1.42
2022-09-01T15:25:41.405Z,1.25
2022-09-01T15:28:09.803Z,1.42
2022-09-01T15:30:38.793Z,1.40
2022-09-01T15:33:14.671Z,1.40
2022-09-01T15:35:44.233Z,2.00
2022-09-01T15:38:17.479Z,1.30
2022-09-01T15:40:55.509Z,2.03
2022-09-01T15:43:26.616Z,1.90
2022-09-01T15:45:54.398Z,1.02
2022-09-01T15:48:22.171Z,1.50
2022-09-01T15:50:50.170Z,1.08
2022-09-01T15:53:19.332Z,0.90
2022-09-01T15:55:49.415Z,1.55
2022-09-01T15:58:19.016Z,1.10
2022-09-01T16:00:47.110Z,1.20
2022-09-01T16:03:14.940Z,1.52
2022-09-01T16:05:42.761Z,1.52
2022-09-01T16:08:11.736Z,1.48
2022-09-01T16:10:42.274Z,1.40
2022-09-01T16:13:11.114Z,1.60
2022-09-01T16:15:47.528Z,1.60
2022-09-01T16:18:28.103Z,1.30
2022-09-01T16:21:02.504Z,1.13
2022-09-01T16:23:41.483Z,1.30
2022-09-01T16:26:11.837Z,1.40
2022-09-01T16:28:40.360Z,1.50
2022-09-01T16:31:13.126Z,2.92
2022-09-01T16:33:48.361Z,1.30
2022-09-01T16:36:29.824Z,1.70
2022-09-01T16:39:06.638Z,3.78
2022-09-01T16:41:48.236Z,1.70
2022-09-01T16:44:26.438Z,2.17
2022-09-01T16:47:04.041Z,1.23
2022-09-01T16:49:37.785Z,3.65
2022-09-01T16:52:14.589Z,2.65
2022-09-01T16:54:57.508Z,1.63
2022-09-01T16:57:36.820Z,4.10
2022-09-01T17:00:08.041Z,1.40
2022-09-01T17:02:42.961Z,1.38
2022-09-01T17:05:22.039Z,1.23
2022-09-01T17:07:56.622Z,1.35
2022-09-01T17:10:34.514Z,1.50
2022-09-01T17:13:15.821Z,1.67
2022-09-01T17:15:48.077Z,1.65
2022-09-01T17:18:21.711Z,1.55
2022-09-01T17:20:58.383Z,1.70
2022-09-01T17:23:30.655Z,1.60
2022-09-01T17:26:03.038Z,1.80
2022-09-01T17:28:36.679Z,1.50
2022-09-01T17:31:14.527Z,0.93
2022-09-01T17:33:59.393Z,1.50
2022-09-01T17:36:43.416Z,1.70
2022-09-01T17:39:29.531Z,1.80
2022-09-01T17:42:01.104Z,1.30
2022-09-01T17:44:41.724Z,1.60
2022-09-01T17:47:14.705Z,1.50
2022-09-01T17:49:51.741Z,1.55
2022-09-01T17:52:27.054Z,1.90
2022-09-01T17:55:01.306Z,2.35
2022-09-01T17:57:38.603Z,1.30
2022-09-01T18:00:14.047Z,1.65
2022-09-01T18:03:07.284Z,7.10
2022-09-01T18:05:41.212Z,5.28
2022-09-01T18:08:25.745Z,4.40
2022-09-01T18:10:59.590Z,2.28
2022-09-01T18:13:51.848Z,2.30
2022-09-01T18:16:24.380Z,2.80
2022-09-01T18:18:53.574Z,2.50
2022-09-01T18:21:24.980Z,2.78
2022-09-01T18:23:58.812Z,1.77
2022-09-01T18:26:29.739Z,1.80
2022-09-01T18:28:58.324Z,2.10
2022-09-01T18:32:07.539Z,2.00
2022-09-01T18:34:49.086Z,2.17
2022-09-01T18:37:25.495Z,2.00
2022-09-01T18:40:02.329Z,1.90
2022-09-01T18:42:35.874Z,1.70
2022-09-01T18:45:12.071Z,1.85
2022-09-01T18:47:51.009Z,2.75
2022-09-01T18:50:24.670Z,2.05
2022-09-01T18:53:06.557Z,1.90
2022-09-01T18:55:44.179Z,2.10
2022-09-01T18:58:23.702Z,2.00
2022-09-01T19:00:58.959Z,1.92
2022-09-01T19:03:32.561Z,2.08
2022-09-01T19:06:12.922Z,2.20
2022-09-01T19:08:51.777Z,2.00
2022-09-01T19:11:30.806Z,3.47
2022-09-01T19:14:07.554Z,2.50
2022-09-01T19:16:46.484Z,1.92
2022-09-01T19:19:29.651Z,1.92
2022-09-01T19:21:57.439Z,2.15
2022-09-01T19:24:30.151Z,2.00
2022-09-01T19:27:01.718Z,2.17
2022-09-01T19:29:34.162Z,2.47
2022-09-01T19:32:06.458Z,3.03
2022-09-01T19:34:40.632Z,3.50
2022-09-01T19:37:08.947Z,2.90
2022-09-01T19:39:39.835Z,2.85
2022-09-01T19:42:14.082Z,2.75
2022-09-01T19:44:46.955Z,2.22
2022-09-01T19:47:22.205Z,2.25
2022-09-01T19:49:59.289Z,2.10
2022-09-01T19:52:33.115Z,2.45
2022-09-01T19:55:06.617Z,2.90
2022-09-01T19:57:40.283Z,3.40
2022-09-01T20:00:13.781Z,3.05
2022-09-01T20:02:47.625Z,2.88
2022-09-01T20:05:26.854Z,2.25
2022-09-01T20:07:57.920Z,2.47
2022-09-01T20:10:42.818Z,2.30
2022-09-01T20:13:33.634Z,2.72
2022-09-01T20:16:09.321Z,2.78
2022-09-01T20:18:41.306Z,2.58
2022-09-01T20:21:17.597Z,2.53
2022-09-01T20:23:55.643Z,2.85
2022-09-01T20:26:27.496Z,3.08
2022-09-01T20:29:00.266Z,2.72
2022-09-01T20:31:32.015Z,2.60
2022-09-01T20:34:06.980Z,2.90
2022-09-01T20:36:40.437Z,2.83
2022-09-01T20:39:33.358Z,2.63
2022-09-01T20:42:05.827Z,3.00
2022-09-01T20:44:41.411Z,2.80
2022-09-01T20:47:09.318Z,2.90
2022-09-01T20:49:39.662Z,3.10
2022-09-01T20:52:16.283Z,3.30
2022-09-01T20:54:52.267Z,4.28
2022-09-01T20:57:32.894Z,5.72
2022-09-01T21:00:07.768Z,3.75
2022-09-01T21:02:54.743Z,3.00
2022-09-01T21:05:36.150Z,2.97
2022-09-01T21:08:25.161Z,2.80
2022-09-01T21:10:59.345Z,2.85
2022-09-01T21:13:44.328Z,3.00
2022-09-01T21:16:19.687Z,3.85
2022-09-01T21:18:57.075Z,5.40
2022-09-01T21:21:33.151Z,6.57
2022-09-01T21:24:02.414Z,4.50
2022-09-01T21:26:30.661Z,5.00
2022-09-01T21:29:00.705Z,3.80
2022-09-01T21:31:29.335Z,3.25
2022-09-01T21:33:57.190Z,4.18
2022-09-01T21:36:25.057Z,4.15
2022-09-01T21:38:52.826Z,2.90
2022-09-01T21:41:22.020Z,3.03
2022-09-01T21:43:49.802Z,3.45
2022-09-01T21:46:18.978Z,2.80
2022-09-01T21:48:46.823Z,3.10
2022-09-01T21:51:14.574Z,3.40
2022-09-01T21:53:43.328Z,3.22
2022-09-01T21:56:11.072Z,3.80
2022-09-01T21:58:40.686Z,3.22
2022-09-01T22:01:10.506Z,3.60
2022-09-01T22:03:42.026Z,3.30
2022-09-01T22:06:12.458Z,5.72
2022-09-01T22:08:40.210Z,4.35
2022-09-01T22:11:10.893Z,3.45
2022-09-01T22:13:40.086Z,3.55
2022-09-01T22:16:08.299Z,2.88
2022-09-01T22:18:36.329Z,3.33
2022-09-01T22:21:06.032Z,2.70
2022-09-01T22:23:34.294Z,3.50
2022-09-01T22:26:02.110Z,2.70
2022-09-01T22:28:29.942Z,2.92
2022-09-01T22:30:59.286Z,3.72
2022-09-01T22:33:27.289Z,3.20
2022-09-01T22:35:57.631Z,3.10
2022-09-01T22:38:25.444Z,3.58
2022-09-01T22:40:55.771Z,3.65
2022-09-01T22:43:27.025Z,3.65
2022-09-01T22:45:56.822Z,3.10
2022-09-01T22:48:27.979Z,3.38
2022-09-01T22:50:56.311Z,3.20
2022-09-01T22:53:24.305Z,3.05
2022-09-01T22:55:52.860Z,3.42
2022-09-01T22:58:20.973Z,3.42
2022-09-01T23:00:50.898Z,3.30
2022-09-01T23:03:20.998Z,3.28
2022-09-01T23:05:51.204Z,3.42
2022-09-01T23:08:19.136Z,3.50
2022-09-01T23:10:47.188Z,3.97
2022-09-01T23:13:15.125Z,5.45
2022-09-01T23:15:42.964Z,5.00
2022-09-01T23:18:10.721Z,5.50
2022-09-01T23:20:38.472Z,5.45
2022-09-01T23:23:08.038Z,5.25
2022-09-01T23:25:35.844Z,2.97
2022-09-01T23:28:04.088Z,4.30
2022-09-01T23:30:31.850Z,3.40
2022-09-01T23:32:59.704Z,3.05
2022-09-01T23:35:27.999Z,3.88
2022-09-01T23:37:55.962Z,3.45
2022-09-01T23:40:25.342Z,3.63
2022-09-01T23:42:53.124Z,3.92
2022-09-01T23:45:21.562Z,3.63
2022-09-01T23:47:49.374Z,4.22
2022-09-01T23:50:17.180Z,4.30
2022-09-01T23:52:45.318Z,4.07
2022-09-01T23:55:13.322Z,3.75
2022-09-01T23:57:42.398Z,4.07
